sensor_id;sensor_type;location;lat;lon;timestamp;P1;durP1;ratioP1;P2;durP2;ratioP2
73084;SDS011;62974;49.460;10.892;2022-09-21T00:01:07;65.60;;;62.63;;
73084;SDS011;62974;49.460;10.892;2022-09-21T00:03:37;64.43;;;61.50;;
73084;SDS011;62974;49.460;10.892;2022-09-21T00:06:07;63.97;;;61.13;;
73084;SDS011;62974;49.460;10.892;2022-09-21T00:08:37;65.87;;;63.17;;
73084;SDS011;62974;49.460;10.892;2022-09-21T00:11:05;65.13;;;62.07;;
73084;SDS011;62974;49.460;10.892;2022-09-21T00:13:33;65.20;;;62.40;;
73084;SDS011;62974;49.460;10.892;2022-09-21T00:16:03;63.70;;;61.00;;
73084;SDS011;62974;49.460;10.892;2022-09-21T00:18:32;63.40;;;60.70;;
73084;SDS011;62974;49.460;10.892;2022-09-21T00:21:00;63.00;;;60.30;;
73084;SDS011;62974;49.460;10.892;2022-09-21T00:23:32;63.77;;;61.10;;
73084;SDS011;62974;49.460;10.892;2022-09-21T00:26:06;62.53;;;60.03;;
73084;SDS011;62974;49.460;10.892;2022-09-21T00:28:35;64.47;;;61.43;;
73084;SDS011;62974;49.460;10.892;2022-09-21T00:31:03;63.13;;;60.53;;
73084;SDS011;62974;49.460;10.892;2022-09-21T00:33:33;62.40;;;59.50;;
73084;SDS011;62974;49.460;10.892;2022-09-21T00:36:01;63.10;;;60.27;;
73084;SDS011;62974;49.460;10.892;2022-09-21T00:38:29;61.33;;;58.90;;
73084;SDS011;62974;49.460;10.892;2022-09-21T00:40:57;63.50;;;60.90;;
73084;SDS011;62974;49.460;10.892;2022-09-21T00:43:26;63.40;;;60.20;;
73084;SDS011;62974;49.460;10.892;2022-09-21T00:45:56;63.20;;;60.50;;
73084;SDS011;62974;49.460;10.892;2022-09-21T00:48:28;62.20;;;59.70;;
73084;SDS011;62974;49.460;10.892;2022-09-21T00:50:57;63.40;;;60.80;;
73084;SDS011;62974;49.460;10.892;2022-09-21T00:53:28;62.90;;;60.50;;
73084;SDS011;62974;49.460;10.892;2022-09-21T00:55:57;62.50;;;59.90;;
73084;SDS011;62974;49.460;10.892;2022-09-21T00:58:28;62.70;;;60.30;;
73084;SDS011;62974;49.460;10.892;2022-09-21T01:00:57;62.57;;;60.00;;
73084;SDS011;62974;49.460;10.892;2022-09-21T01:03:27;62.83;;;60.33;;
73084;SDS011;62974;49.460;10.892;2022-09-21T01:05:57;62.43;;;60.03;;
73084;SDS011;62974;49.460;10.892;2022-09-21T01:08:24;61.50;;;59.10;;
73084;SDS011;62974;49.460;10.892;2022-09-21T01:11:10;63.23;;;60.70;;
73084;SDS011;62974;49.460;10.892;2022-09-21T01:13:55;61.80;;;59.30;;
73084;SDS011;62974;49.460;10.892;2022-09-21T01:16:34;61.77;;;59.43;;
73084;SDS011;62974;49.460;10.892;2022-09-21T01:19:13;62.50;;;60.13;;
73084;SDS011;62974;49.460;10.892;2022-09-21T01:21:54;62.80;;;60.17;;
73084;SDS011;62974;49.460;10.892;2022-09-21T01:24:34;61.87;;;59.37;;
73084;SDS011;62974;49.460;10.892;2022-09-21T01:30:20;62.57;;;60.17;;
73084;SDS011;62974;49.460;10.892;2022-09-21T01:32:50;63.13;;;60.60;;
73084;SDS011;62974;49.460;10.892;2022-09-21T01:35:23;61.83;;;59.27;;
73084;SDS011;62974;49.460;10.892;2022-09-21T01:37:55;61.70;;;59.37;;
73084;SDS011;62974;49.460;10.892;2022-09-21T01:40:26;62.77;;;60.13;;
73084;SDS011;62974;49.460;10.892;2022-09-21T01:43:01;62.77;;;60.07;;
73084;SDS011;62974;49.460;10.892;2022-09-21T01:45:33;62.07;;;59.67;;
73084;SDS011;62974;49.460;10.892;2022-09-21T01:48:05;61.73;;;59.23;;
73084;SDS011;62974;49.460;10.892;2022-09-21T01:50:35;62.97;;;60.37;;
73084;SDS011;62974;49.460;10.892;2022-09-21T01:53:06;62.00;;;59.70;;
73084;SDS011;62974;49.460;10.892;2022-09-21T01:55:39;62.10;;;59.60;;
73084;SDS011;62974;49.460;10.892;2022-09-21T01:58:13;61.40;;;59.00;;
73084;SDS011;62974;49.460;10.892;2022-09-21T02:00:46;61.30;;;59.10;;
73084;SDS011;62974;49.460;10.892;2022-09-21T02:03:19;63.27;;;60.77;;
73084;SDS011;62974;49.460;10.892;2022-09-21T02:05:52;61.03;;;58.83;;
73084;SDS011;62974;49.460;10.892;2022-09-21T02:08:20;61.23;;;58.70;;
73084;SDS011;62974;49.460;10.892;2022-09-21T02:10:49;61.70;;;59.00;;
73084;SDS011;62974;49.460;10.892;2022-09-21T02:13:19;61.40;;;58.97;;
73084;SDS011;62974;49.460;10.892;2022-09-21T02:16:01;61.50;;;58.77;;
73084;SDS011;62974;49.460;10.892;2022-09-21T02:18:42;61.30;;;58.87;;
73084;SDS011;62974;49.460;10.892;2022-09-21T02:21:18;63.10;;;60.00;;
73084;SDS011;62974;49.460;10.892;2022-09-21T02:23:53;62.63;;;59.93;;
73084;SDS011;62974;49.460;10.892;2022-09-21T02:26:30;63.83;;;60.60;;
73084;SDS011;62974;49.460;10.892;2022-09-21T02:29:05;63.47;;;60.57;;
73084;SDS011;62974;49.460;10.892;2022-09-21T02:31:43;63.63;;;60.67;;
73084;SDS011;62974;49.460;10.892;2022-09-21T02:34:17;61.87;;;59.37;;
73084;SDS011;62974;49.460;10.892;2022-09-21T02:36:48;62.57;;;59.77;;
73084;SDS011;62974;49.460;10.892;2022-09-21T02:39:23;62.87;;;60.13;;
73084;SDS011;62974;49.460;10.892;2022-09-21T02:41:59;62.87;;;59.97;;
73084;SDS011;62974;49.460;10.892;2022-09-21T02:44:33;64.93;;;60.00;;
73084;SDS011;62974;49.460;10.892;2022-09-21T02:47:08;61.23;;;58.47;;
73084;SDS011;62974;49.460;10.892;2022-09-21T02:49:41;61.63;;;58.60;;
73084;SDS011;62974;49.460;10.892;2022-09-21T02:52:13;61.73;;;58.70;;
73084;SDS011;62974;49.460;10.892;2022-09-21T02:54:44;61.73;;;59.00;;
73084;SDS011;62974;49.460;10.892;2022-09-21T02:57:16;61.03;;;58.60;;
73084;SDS011;62974;49.460;10.892;2022-09-21T02:59:46;60.20;;;57.80;;
73084;SDS011;62974;49.460;10.892;2022-09-21T03:02:15;60.63;;;58.03;;
73084;SDS011;62974;49.460;10.892;2022-09-21T03:04:44;60.80;;;58.20;;
73084;SDS011;62974;49.460;10.892;2022-09-21T03:07:13;62.43;;;58.90;;
73084;SDS011;62974;49.460;10.892;2022-09-21T03:09:41;59.87;;;57.23;;
73084;SDS011;62974;49.460;10.892;2022-09-21T03:12:10;61.90;;;59.33;;
73084;SDS011;62974;49.460;10.892;2022-09-21T03:14:37;64.13;;;59.80;;
73084;SDS011;62974;49.460;10.892;2022-09-21T03:17:05;62.50;;;59.37;;
73084;SDS011;62974;49.460;10.892;2022-09-21T03:19:33;62.83;;;59.30;;
73084;SDS011;62974;49.460;10.892;2022-09-21T03:22:01;62.53;;;58.87;;
73084;SDS011;62974;49.460;10.892;2022-09-21T03:24:29;62.77;;;59.53;;
73084;SDS011;62974;49.460;10.892;2022-09-21T03:27:11;65.13;;;59.40;;
73084;SDS011;62974;49.460;10.892;2022-09-21T03:29:39;65.10;;;59.90;;
73084;SDS011;62974;49.460;10.892;2022-09-21T03:32:07;67.07;;;60.90;;
73084;SDS011;62974;49.460;10.892;2022-09-21T03:34:36;62.83;;;59.10;;
73084;SDS011;62974;49.460;10.892;2022-09-21T03:37:05;64.83;;;60.93;;
73084;SDS011;62974;49.460;10.892;2022-09-21T03:39:34;64.07;;;60.37;;
73084;SDS011;62974;49.460;10.892;2022-09-21T03:42:01;64.00;;;60.50;;
73084;SDS011;62974;49.460;10.892;2022-09-21T03:44:29;63.27;;;60.00;;
73084;SDS011;62974;49.460;10.892;2022-09-21T03:46:57;62.10;;;59.20;;
73084;SDS011;62974;49.460;10.892;2022-09-21T03:49:25;64.40;;;60.37;;
73084;SDS011;62974;49.460;10.892;2022-09-21T03:51:53;62.97;;;60.33;;
73084;SDS011;62974;49.460;10.892;2022-09-21T03:54:22;61.83;;;59.03;;
73084;SDS011;62974;49.460;10.892;2022-09-21T03:56:50;63.50;;;59.90;;
73084;SDS011;62974;49.460;10.892;2022-09-21T03:59:18;63.40;;;60.10;;
73084;SDS011;62974;49.460;10.892;2022-09-21T04:01:46;61.40;;;57.77;;
73084;SDS011;62974;49.460;10.892;2022-09-21T04:04:13;65.30;;;60.20;;
73084;SDS011;62974;49.460;10.892;2022-09-21T04:06:41;67.30;;;60.57;;
73084;SDS011;62974;49.460;10.892;2022-09-21T04:09:12;63.57;;;60.07;;
73084;SDS011;62974;49.460;10.892;2022-09-21T04:11:40;65.03;;;60.50;;
73084;SDS011;62974;49.460;10.892;2022-09-21T04:14:09;63.97;;;60.90;;
73084;SDS011;62974;49.460;10.892;2022-09-21T04:16:37;65.20;;;60.43;;
73084;SDS011;62974;49.460;10.892;2022-09-21T04:19:05;64.30;;;60.30;;
73084;SDS011;62974;49.460;10.892;2022-09-21T04:21:32;65.73;;;60.37;;
73084;SDS011;62974;49.460;10.892;2022-09-21T04:24:00;63.60;;;60.00;;
73084;SDS011;62974;49.460;10.892;2022-09-21T04:26:31;65.03;;;60.63;;
73084;SDS011;62974;49.460;10.892;2022-09-21T04:28:59;69.13;;;63.63;;
73084;SDS011;62974;49.460;10.892;2022-09-21T04:31:28;96.13;;;64.73;;
73084;SDS011;62974;49.460;10.892;2022-09-21T04:33:57;67.13;;;61.07;;
73084;SDS011;62974;49.460;10.892;2022-09-21T04:36:26;68.17;;;61.47;;
73084;SDS011;62974;49.460;10.892;2022-09-21T04:39:00;68.20;;;61.87;;
73084;SDS011;62974;49.460;10.892;2022-09-21T04:41:28;73.40;;;64.00;;
73084;SDS011;62974;49.460;10.892;2022-09-21T04:43:57;67.17;;;60.60;;
73084;SDS011;62974;49.460;10.892;2022-09-21T04:46:25;63.40;;;59.30;;
73084;SDS011;62974;49.460;10.892;2022-09-21T04:48:52;66.40;;;59.63;;
73084;SDS011;62974;49.460;10.892;2022-09-21T04:51:20;65.97;;;60.23;;
73084;SDS011;62974;49.460;10.892;2022-09-21T04:53:47;66.50;;;60.17;;
73084;SDS011;62974;49.460;10.892;2022-09-21T04:56:15;66.47;;;60.03;;
73084;SDS011;62974;49.460;10.892;2022-09-21T04:58:43;67.33;;;60.63;;
73084;SDS011;62974;49.460;10.892;2022-09-21T05:01:12;65.40;;;60.20;;
73084;SDS011;62974;49.460;10.892;2022-09-21T05:03:39;79.33;;;63.30;;
73084;SDS011;62974;49.460;10.892;2022-09-21T05:06:07;95.97;;;62.50;;
73084;SDS011;62974;49.460;10.892;2022-09-21T05:08:38;66.30;;;60.00;;
73084;SDS011;62974;49.460;10.892;2022-09-21T05:11:23;74.43;;;61.20;;
73084;SDS011;62974;49.460;10.892;2022-09-21T05:13:52;93.23;;;62.47;;
73084;SDS011;62974;49.460;10.892;2022-09-21T05:16:21;65.97;;;60.30;;
73084;SDS011;62974;49.460;10.892;2022-09-21T05:18:51;72.00;;;60.57;;
73084;SDS011;62974;49.460;10.892;2022-09-21T05:21:21;66.00;;;60.23;;
73084;SDS011;62974;49.460;10.892;2022-09-21T05:23:48;66.83;;;59.87;;
73084;SDS011;62974;49.460;10.892;2022-09-21T05:26:16;66.60;;;61.07;;
73084;SDS011;62974;49.460;10.892;2022-09-21T05:28:44;65.33;;;60.53;;
73084;SDS011;62974;49.460;10.892;2022-09-21T05:34:02;64.20;;;60.13;;
73084;SDS011;62974;49.460;10.892;2022-09-21T05:36:39;67.30;;;60.80;;
73084;SDS011;62974;49.460;10.892;2022-09-21T05:39:13;68.97;;;62.77;;
73084;SDS011;62974;49.460;10.892;2022-09-21T05:41:41;64.83;;;60.43;;
73084;SDS011;62974;49.460;10.892;2022-09-21T05:44:10;67.73;;;60.60;;
73084;SDS011;62974;49.460;10.892;2022-09-21T05:46:41;65.23;;;60.33;;
73084;SDS011;62974;49.460;10.892;2022-09-21T05:49:21;65.27;;;60.43;;
73084;SDS011;62974;49.460;10.892;2022-09-21T05:51:55;64.30;;;60.90;;
73084;SDS011;62974;49.460;10.892;2022-09-21T05:54:31;69.03;;;62.07;;
73084;SDS011;62974;49.460;10.892;2022-09-21T05:57:10;65.90;;;60.90;;
73084;SDS011;62974;49.460;10.892;2022-09-21T05:59:50;63.87;;;59.30;;
73084;SDS011;62974;49.460;10.892;2022-09-21T06:02:31;80.23;;;63.00;;
73084;SDS011;62974;49.460;10.892;2022-09-21T06:05:11;65.80;;;60.00;;
73084;SDS011;62974;49.460;10.892;2022-09-21T06:07:40;67.60;;;61.03;;
73084;SDS011;62974;49.460;10.892;2022-09-21T06:10:08;67.30;;;60.70;;
73084;SDS011;62974;49.460;10.892;2022-09-21T06:12:36;65.60;;;59.90;;
73084;SDS011;62974;49.460;10.892;2022-09-21T06:15:05;68.33;;;60.87;;
73084;SDS011;62974;49.460;10.892;2022-09-21T06:17:35;64.33;;;59.37;;
73084;SDS011;62974;49.460;10.892;2022-09-21T06:20:03;67.63;;;61.47;;
73084;SDS011;62974;49.460;10.892;2022-09-21T06:22:32;64.97;;;60.10;;
73084;SDS011;62974;49.460;10.892;2022-09-21T06:25:00;67.73;;;61.20;;
73084;SDS011;62974;49.460;10.892;2022-09-21T06:27:28;64.60;;;59.83;;
73084;SDS011;62974;49.460;10.892;2022-09-21T06:29:55;66.63;;;60.50;;
73084;SDS011;62974;49.460;10.892;2022-09-21T06:32:23;65.77;;;60.20;;
73084;SDS011;62974;49.460;10.892;2022-09-21T06:34:52;66.40;;;60.43;;
73084;SDS011;62974;49.460;10.892;2022-09-21T06:37:19;66.60;;;60.57;;
73084;SDS011;62974;49.460;10.892;2022-09-21T06:39:47;65.10;;;60.10;;
73084;SDS011;62974;49.460;10.892;2022-09-21T06:42:14;61.50;;;58.03;;
73084;SDS011;62974;49.460;10.892;2022-09-21T06:44:42;65.30;;;60.40;;
73084;SDS011;62974;49.460;10.892;2022-09-21T06:47:09;67.10;;;60.30;;
73084;SDS011;62974;49.460;10.892;2022-09-21T06:49:37;66.20;;;60.80;;
73084;SDS011;62974;49.460;10.892;2022-09-21T06:52:09;65.83;;;60.57;;
73084;SDS011;62974;49.460;10.892;2022-09-21T06:54:36;76.53;;;61.30;;
73084;SDS011;62974;49.460;10.892;2022-09-21T06:57:04;67.23;;;61.60;;
73084;SDS011;62974;49.460;10.892;2022-09-21T06:59:32;65.17;;;61.07;;
73084;SDS011;62974;49.460;10.892;2022-09-21T07:01:59;69.47;;;62.47;;
73084;SDS011;62974;49.460;10.892;2022-09-21T07:04:27;68.30;;;63.30;;
73084;SDS011;62974;49.460;10.892;2022-09-21T07:06:55;68.77;;;62.33;;
73084;SDS011;62974;49.460;10.892;2022-09-21T07:09:27;64.80;;;61.60;;
73084;SDS011;62974;49.460;10.892;2022-09-21T07:12:15;67.30;;;62.13;;
73084;SDS011;62974;49.460;10.892;2022-09-21T07:14:42;65.43;;;61.37;;
73084;SDS011;62974;49.460;10.892;2022-09-21T07:17:11;66.03;;;62.20;;
73084;SDS011;62974;49.460;10.892;2022-09-21T07:19:41;66.37;;;62.40;;
73084;SDS011;62974;49.460;10.892;2022-09-21T07:22:08;65.83;;;62.33;;
73084;SDS011;62974;49.460;10.892;2022-09-21T07:24:37;66.73;;;62.43;;
73084;SDS011;62974;49.460;10.892;2022-09-21T07:27:05;65.00;;;61.73;;
73084;SDS011;62974;49.460;10.892;2022-09-21T07:29:32;66.63;;;62.13;;
73084;SDS011;62974;49.460;10.892;2022-09-21T07:32:00;64.90;;;60.17;;
73084;SDS011;62974;49.460;10.892;2022-09-21T07:34:28;64.77;;;60.90;;
73084;SDS011;62974;49.460;10.892;2022-09-21T07:36:55;64.57;;;60.40;;
73084;SDS011;62974;49.460;10.892;2022-09-21T07:39:23;65.60;;;62.10;;
73084;SDS011;62974;49.460;10.892;2022-09-21T07:41:52;65.10;;;60.70;;
73084;SDS011;62974;49.460;10.892;2022-09-21T07:44:19;62.57;;;59.33;;
73084;SDS011;62974;49.460;10.892;2022-09-21T07:46:47;63.27;;;60.33;;
73084;SDS011;62974;49.460;10.892;2022-09-21T07:49:15;64.13;;;60.83;;
73084;SDS011;62974;49.460;10.892;2022-09-21T07:51:43;64.47;;;60.80;;
73084;SDS011;62974;49.460;10.892;2022-09-21T07:54:11;64.30;;;61.27;;
73084;SDS011;62974;49.460;10.892;2022-09-21T07:56:41;66.63;;;63.00;;
73084;SDS011;62974;49.460;10.892;2022-09-21T07:59:30;64.80;;;61.47;;
73084;SDS011;62974;49.460;10.892;2022-09-21T08:01:58;65.97;;;62.60;;
73084;SDS011;62974;49.460;10.892;2022-09-21T08:04:26;67.20;;;63.40;;
73084;SDS011;62974;49.460;10.892;2022-09-21T08:06:53;65.67;;;62.13;;
73084;SDS011;62974;49.460;10.892;2022-09-21T08:09:21;63.33;;;60.40;;
73084;SDS011;62974;49.460;10.892;2022-09-21T08:11:48;63.90;;;60.60;;
73084;SDS011;62974;49.460;10.892;2022-09-21T08:14:17;63.83;;;60.57;;
73084;SDS011;62974;49.460;10.892;2022-09-21T08:16:52;63.67;;;60.73;;
73084;SDS011;62974;49.460;10.892;2022-09-21T08:19:20;66.27;;;63.00;;
73084;SDS011;62974;49.460;10.892;2022-09-21T08:21:51;67.23;;;64.03;;
73084;SDS011;62974;49.460;10.892;2022-09-21T08:24:22;64.17;;;60.97;;
73084;SDS011;62974;49.460;10.892;2022-09-21T08:26:50;64.70;;;61.60;;
73084;SDS011;62974;49.460;10.892;2022-09-21T08:29:18;63.73;;;60.63;;
73084;SDS011;62974;49.460;10.892;2022-09-21T08:31:46;66.00;;;62.70;;
73084;SDS011;62974;49.460;10.892;2022-09-21T08:34:15;66.33;;;63.13;;
73084;SDS011;62974;49.460;10.892;2022-09-21T08:36:42;65.77;;;62.57;;
73084;SDS011;62974;49.460;10.892;2022-09-21T08:39:11;66.47;;;63.27;;
73084;SDS011;62974;49.460;10.892;2022-09-21T08:41:45;65.80;;;62.50;;
73084;SDS011;62974;49.460;10.892;2022-09-21T08:44:26;66.90;;;63.57;;
73084;SDS011;62974;49.460;10.892;2022-09-21T08:47:00;67.87;;;64.53;;
73084;SDS011;62974;49.460;10.892;2022-09-21T08:49:32;69.10;;;65.50;;
73084;SDS011;62974;49.460;10.892;2022-09-21T08:52:05;67.80;;;64.20;;
73084;SDS011;62974;49.460;10.892;2022-09-21T08:54:41;67.87;;;64.40;;
73084;SDS011;62974;49.460;10.892;2022-09-21T08:57:13;68.47;;;64.67;;
73084;SDS011;62974;49.460;10.892;2022-09-21T08:59:42;71.37;;;67.17;;
73084;SDS011;62974;49.460;10.892;2022-09-21T09:02:19;69.17;;;65.20;;
73084;SDS011;62974;49.460;10.892;2022-09-21T09:05:04;67.43;;;63.90;;
73084;SDS011;62974;49.460;10.892;2022-09-21T09:07:50;68.30;;;64.67;;
73084;SDS011;62974;49.460;10.892;2022-09-21T09:10:33;65.20;;;62.10;;
73084;SDS011;62974;49.460;10.892;2022-09-21T09:13:16;69.10;;;65.17;;
73084;SDS011;62974;49.460;10.892;2022-09-21T09:15:56;67.67;;;64.07;;
73084;SDS011;62974;49.460;10.892;2022-09-21T09:18:42;68.53;;;64.87;;
73084;SDS011;62974;49.460;10.892;2022-09-21T09:21:18;67.60;;;64.20;;
73084;SDS011;62974;49.460;10.892;2022-09-21T09:23:58;67.30;;;63.90;;
73084;SDS011;62974;49.460;10.892;2022-09-21T09:26:32;67.07;;;63.67;;
73084;SDS011;62974;49.460;10.892;2022-09-21T09:29:10;68.70;;;65.20;;
73084;SDS011;62974;49.460;10.892;2022-09-21T09:31:44;67.50;;;63.97;;
73084;SDS011;62974;49.460;10.892;2022-09-21T09:34:14;67.47;;;64.00;;
73084;SDS011;62974;49.460;10.892;2022-09-21T09:36:48;68.70;;;64.80;;
73084;SDS011;62974;49.460;10.892;2022-09-21T09:39:24;65.97;;;62.77;;
73084;SDS011;62974;49.460;10.892;2022-09-21T09:41:59;64.77;;;61.40;;
73084;SDS011;62974;49.460;10.892;2022-09-21T09:44:40;65.70;;;62.03;;
73084;SDS011;62974;49.460;10.892;2022-09-21T09:47:24;66.43;;;63.10;;
73084;SDS011;62974;49.460;10.892;2022-09-21T09:50:03;66.00;;;62.63;;
73084;SDS011;62974;49.460;10.892;2022-09-21T09:52:36;65.73;;;62.10;;
73084;SDS011;62974;49.460;10.892;2022-09-21T09:55:10;66.03;;;62.73;;
73084;SDS011;62974;49.460;10.892;2022-09-21T09:57:44;67.63;;;63.93;;
73084;SDS011;62974;49.460;10.892;2022-09-21T10:00:13;66.70;;;63.50;;
73084;SDS011;62974;49.460;10.892;2022-09-21T10:02:47;65.40;;;62.10;;
73084;SDS011;62974;49.460;10.892;2022-09-21T10:05:19;66.97;;;63.87;;
73084;SDS011;62974;49.460;10.892;2022-09-21T10:07:50;66.13;;;62.73;;
73084;SDS011;62974;49.460;10.892;2022-09-21T10:10:32;66.77;;;63.10;;
73084;SDS011;62974;49.460;10.892;2022-09-21T10:13:02;68.27;;;64.43;;
73084;SDS011;62974;49.460;10.892;2022-09-21T10:15:38;68.77;;;65.43;;
73084;SDS011;62974;49.460;10.892;2022-09-21T10:18:14;65.23;;;62.07;;
73084;SDS011;62974;49.460;10.892;2022-09-21T10:20:55;67.20;;;64.00;;
73084;SDS011;62974;49.460;10.892;2022-09-21T10:23:28;68.07;;;64.77;;
73084;SDS011;62974;49.460;10.892;2022-09-21T10:25:58;66.77;;;63.37;;
73084;SDS011;62974;49.460;10.892;2022-09-21T10:28:29;68.50;;;65.10;;
73084;SDS011;62974;49.460;10.892;2022-09-21T10:33:53;68.27;;;64.83;;
73084;SDS011;62974;49.460;10.892;2022-09-21T10:36:32;68.00;;;64.67;;
73084;SDS011;62974;49.460;10.892;2022-09-21T10:39:19;68.53;;;65.33;;
73084;SDS011;62974;49.460;10.892;2022-09-21T10:41:49;69.57;;;66.27;;
73084;SDS011;62974;49.460;10.892;2022-09-21T10:44:21;69.50;;;66.30;;
73084;SDS011;62974;49.460;10.892;2022-09-21T10:46:51;69.67;;;66.17;;
73084;SDS011;62974;49.460;10.892;2022-09-21T10:49:25;67.73;;;64.60;;
73084;SDS011;62974;49.460;10.892;2022-09-21T10:51:55;69.67;;;66.47;;
73084;SDS011;62974;49.460;10.892;2022-09-21T10:54:26;72.63;;;68.87;;
73084;SDS011;62974;49.460;10.892;2022-09-21T10:56:57;70.63;;;67.53;;
73084;SDS011;62974;49.460;10.892;2022-09-21T10:59:28;70.50;;;67.27;;
73084;SDS011;62974;49.460;10.892;2022-09-21T11:01:57;68.10;;;65.07;;
73084;SDS011;62974;49.460;10.892;2022-09-21T11:04:35;67.70;;;64.70;;
73084;SDS011;62974;49.460;10.892;2022-09-21T11:07:08;69.67;;;66.63;;
73084;SDS011;62974;49.460;10.892;2022-09-21T11:09:45;67.60;;;64.70;;
73084;SDS011;62974;49.460;10.892;2022-09-21T11:12:38;68.93;;;65.93;;
73084;SDS011;62974;49.460;10.892;2022-09-21T11:15:18;68.13;;;65.07;;
73084;SDS011;62974;49.460;10.892;2022-09-21T11:17:53;64.90;;;62.20;;
73084;SDS011;62974;49.460;10.892;2022-09-21T11:20:28;66.67;;;63.90;;
73084;SDS011;62974;49.460;10.892;2022-09-21T11:23:02;63.97;;;61.17;;
73084;SDS011;62974;49.460;10.892;2022-09-21T11:25:40;59.47;;;57.07;;
73084;SDS011;62974;49.460;10.892;2022-09-21T11:28:13;71.20;;;68.33;;
73084;SDS011;62974;49.460;10.892;2022-09-21T11:31:02;61.03;;;58.00;;
73084;SDS011;62974;49.460;10.892;2022-09-21T11:33:45;59.07;;;56.87;;
73084;SDS011;62974;49.460;10.892;2022-09-21T11:36:25;59.60;;;56.97;;
73084;SDS011;62974;49.460;10.892;2022-09-21T11:39:02;60.40;;;58.10;;
73084;SDS011;62974;49.460;10.892;2022-09-21T11:41:47;58.50;;;56.50;;
73084;SDS011;62974;49.460;10.892;2022-09-21T11:44:25;59.13;;;56.83;;
73084;SDS011;62974;49.460;10.892;2022-09-21T11:47:04;59.83;;;57.47;;
73084;SDS011;62974;49.460;10.892;2022-09-21T11:49:50;59.37;;;57.23;;
73084;SDS011;62974;49.460;10.892;2022-09-21T11:52:52;58.57;;;56.37;;
73084;SDS011;62974;49.460;10.892;2022-09-21T11:55:39;58.57;;;56.37;;
73084;SDS011;62974;49.460;10.892;2022-09-21T11:58:22;59.40;;;57.23;;
73084;SDS011;62974;49.460;10.892;2022-09-21T12:00:58;59.50;;;57.30;;
73084;SDS011;62974;49.460;10.892;2022-09-21T12:03:43;60.67;;;58.47;;
73084;SDS011;62974;49.460;10.892;2022-09-21T12:06:34;59.50;;;57.30;;
73084;SDS011;62974;49.460;10.892;2022-09-21T12:09:15;59.30;;;57.00;;
73084;SDS011;62974;49.460;10.892;2022-09-21T12:12:02;58.97;;;56.60;;
73084;SDS011;62974;49.460;10.892;2022-09-21T12:14:38;59.07;;;56.97;;
73084;SDS011;62974;49.460;10.892;2022-09-21T12:17:17;59.40;;;57.20;;
73084;SDS011;62974;49.460;10.892;2022-09-21T12:19:53;62.83;;;60.50;;
73084;SDS011;62974;49.460;10.892;2022-09-21T12:22:28;60.67;;;58.40;;
73084;SDS011;62974;49.460;10.892;2022-09-21T12:24:59;60.33;;;58.13;;
73084;SDS011;62974;49.460;10.892;2022-09-21T12:27:33;60.17;;;57.70;;
73084;SDS011;62974;49.460;10.892;2022-09-21T12:30:10;59.60;;;57.10;;
73084;SDS011;62974;49.460;10.892;2022-09-21T12:32:42;60.10;;;57.70;;
73084;SDS011;62974;49.460;10.892;2022-09-21T12:35:19;60.43;;;57.90;;
73084;SDS011;62974;49.460;10.892;2022-09-21T12:37:53;59.87;;;57.67;;
73084;SDS011;62974;49.460;10.892;2022-09-21T12:40:27;62.43;;;60.23;;
73084;SDS011;62974;49.460;10.892;2022-09-21T12:43:05;59.43;;;57.23;;
73084;SDS011;62974;49.460;10.892;2022-09-21T12:45:41;58.10;;;56.00;;
73084;SDS011;62974;49.460;10.892;2022-09-21T12:48:25;58.93;;;56.73;;
73084;SDS011;62974;49.460;10.892;2022-09-21T12:50:58;59.80;;;57.47;;
73084;SDS011;62974;49.460;10.892;2022-09-21T12:53:32;59.00;;;56.90;;
73084;SDS011;62974;49.460;10.892;2022-09-21T12:56:04;59.20;;;57.00;;
73084;SDS011;62974;49.460;10.892;2022-09-21T12:58:44;58.73;;;56.53;;
73084;SDS011;62974;49.460;10.892;2022-09-21T13:01:23;60.20;;;58.00;;
73084;SDS011;62974;49.460;10.892;2022-09-21T13:04:00;58.20;;;56.10;;
73084;SDS011;62974;49.460;10.892;2022-09-21T13:06:54;58.27;;;56.17;;
73084;SDS011;62974;49.460;10.892;2022-09-21T13:09:38;58.63;;;56.47;;
73084;SDS011;62974;49.460;10.892;2022-09-21T13:12:09;58.50;;;56.40;;
73084;SDS011;62974;49.460;10.892;2022-09-21T13:14:42;59.23;;;57.13;;
73084;SDS011;62974;49.460;10.892;2022-09-21T13:17:18;61.90;;;59.60;;
73084;SDS011;62974;49.460;10.892;2022-09-21T13:19:54;60.80;;;58.40;;
73084;SDS011;62974;49.460;10.892;2022-09-21T13:22:25;60.90;;;58.43;;
73084;SDS011;62974;49.460;10.892;2022-09-21T13:25:00;58.47;;;56.40;;
73084;SDS011;62974;49.460;10.892;2022-09-21T13:30:28;58.60;;;56.43;;
73084;SDS011;62974;49.460;10.892;2022-09-21T13:32:59;57.97;;;55.87;;
73084;SDS011;62974;49.460;10.892;2022-09-21T13:38:27;58.60;;;56.50;;
73084;SDS011;62974;49.460;10.892;2022-09-21T13:40:58;58.90;;;56.80;;
73084;SDS011;62974;49.460;10.892;2022-09-21T13:49:32;58.90;;;56.70;;
73084;SDS011;62974;49.460;10.892;2022-09-21T13:52:07;58.80;;;56.60;;
73084;SDS011;62974;49.460;10.892;2022-09-21T13:54:51;58.87;;;56.33;;
73084;SDS011;62974;49.460;10.892;2022-09-21T13:57:24;59.40;;;57.07;;
73084;SDS011;62974;49.460;10.892;2022-09-21T14:00:04;58.67;;;56.47;;
73084;SDS011;62974;49.460;10.892;2022-09-21T14:02:55;58.63;;;56.53;;
73084;SDS011;62974;49.460;10.892;2022-09-21T14:05:29;58.57;;;56.47;;
73084;SDS011;62974;49.460;10.892;2022-09-21T14:08:00;58.80;;;56.60;;
73084;SDS011;62974;49.460;10.892;2022-09-21T14:10:30;58.37;;;56.30;;
73084;SDS011;62974;49.460;10.892;2022-09-21T14:13:01;59.60;;;57.30;;
73084;SDS011;62974;49.460;10.892;2022-09-21T14:15:34;58.47;;;56.30;;
73084;SDS011;62974;49.460;10.892;2022-09-21T14:18:17;59.20;;;57.10;;
73084;SDS011;62974;49.460;10.892;2022-09-21T14:21:16;58.60;;;56.43;;
73084;SDS011;62974;49.460;10.892;2022-09-21T14:26:44;59.10;;;57.00;;
73084;SDS011;62974;49.460;10.892;2022-09-21T14:29:19;58.97;;;56.80;;
73084;SDS011;62974;49.460;10.892;2022-09-21T14:31:52;58.93;;;56.93;;
73084;SDS011;62974;49.460;10.892;2022-09-21T14:34:24;59.10;;;56.90;;
73084;SDS011;62974;49.460;10.892;2022-09-21T14:36:56;59.10;;;56.83;;
73084;SDS011;62974;49.460;10.892;2022-09-21T14:39:27;59.27;;;56.93;;
73084;SDS011;62974;49.460;10.892;2022-09-21T14:41:59;58.40;;;56.30;;
73084;SDS011;62974;49.460;10.892;2022-09-21T14:44:30;58.43;;;56.30;;
73084;SDS011;62974;49.460;10.892;2022-09-21T14:47:04;58.77;;;56.47;;
73084;SDS011;62974;49.460;10.892;2022-09-21T14:49:49;58.37;;;56.17;;
73084;SDS011;62974;49.460;10.892;2022-09-21T14:52:34;59.17;;;56.90;;
73084;SDS011;62974;49.460;10.892;2022-09-21T14:55:12;57.97;;;55.97;;
73084;SDS011;62974;49.460;10.892;2022-09-21T14:57:51;58.80;;;56.60;;
73084;SDS011;62974;49.460;10.892;2022-09-21T15:00:35;59.03;;;56.83;;
73084;SDS011;62974;49.460;10.892;2022-09-21T15:03:12;57.80;;;55.70;;
73084;SDS011;62974;49.460;10.892;2022-09-21T15:05:57;61.63;;;58.80;;